sensor_id;sensor_type;location;lat;lon;timestamp;temperature;humidity
45837;DHT22;31548;51.420;-0.040;2023-03-14T00:00:59;11.10;99.90
45837;DHT22;31548;51.420;-0.040;2023-03-14T00:03:28;11.10;99.90
45837;DHT22;31548;51.420;-0.040;2023-03-14T00:05:55;11.10;99.90
45837;DHT22;31548;51.420;-0.040;2023-03-14T00:08:22;11.10;99.90
45837;DHT22;31548;51.420;-0.040;2023-03-14T00:10:51;11.20;99.90
45837;DHT22;31548;51.420;-0.040;2023-03-14T00:13:19;11.10;99.90
45837;DHT22;31548;51.420;-0.040;2023-03-14T00:15:46;11.10;99.90
45837;DHT22;31548;51.420;-0.040;2023-03-14T00:18:13;11.10;99.90
45837;DHT22;31548;51.420;-0.040;2023-03-14T00:20:40;11.00;99.90
45837;DHT22;31548;51.420;-0.040;2023-03-14T00:23:08;10.90;99.90
45837;DHT22;31548;51.420;-0.040;2023-03-14T00:25:35;10.80;99.90
45837;DHT22;31548;51.420;-0.040;2023-03-14T00:28:02;10.80;99.90
45837;DHT22;31548;51.420;-0.040;2023-03-14T00:30:30;10.70;99.90
45837;DHT22;31548;51.420;-0.040;2023-03-14T00:32:57;10.80;99.90
45837;DHT22;31548;51.420;-0.040;2023-03-14T00:35:24;10.70;99.90
45837;DHT22;31548;51.420;-0.040;2023-03-14T00:37:52;10.70;99.90
45837;DHT22;31548;51.420;-0.040;2023-03-14T00:40:19;10.60;99.90
45837;DHT22;31548;51.420;-0.040;2023-03-14T00:42:48;10.70;99.90
45837;DHT22;31548;51.420;-0.040;2023-03-14T00:45:15;10.60;99.90
45837;DHT22;31548;51.420;-0.040;2023-03-14T00:47:43;10.60;99.90
45837;DHT22;31548;51.420;-0.040;2023-03-14T00:50:13;10.60;99.90
45837;DHT22;31548;51.420;-0.040;2023-03-14T00:52:40;10.60;99.90
45837;DHT22;31548;51.420;-0.040;2023-03-14T00:55:08;10.60;99.90
45837;DHT22;31548;51.420;-0.040;2023-03-14T00:57:36;10.50;99.90
45837;DHT22;31548;51.420;-0.040;2023-03-14T01:00:03;10.60;99.90
45837;DHT22;31548;51.420;-0.040;2023-03-14T01:02:33;10.50;99.90
45837;DHT22;31548;51.420;-0.040;2023-03-14T01:05:01;10.60;99.90
45837;DHT22;31548;51.420;-0.040;2023-03-14T01:07:28;10.60;99.90
45837;DHT22;31548;51.420;-0.040;2023-03-14T01:09:55;10.60;99.90
45837;DHT22;31548;51.420;-0.040;2023-03-14T01:12:22;10.50;99.90
45837;DHT22;31548;51.420;-0.040;2023-03-14T01:14:50;10.60;99.90
45837;DHT22;31548;51.420;-0.040;2023-03-14T01:17:17;10.60;99.90
45837;DHT22;31548;51.420;-0.040;2023-03-14T01:19:44;10.50;99.90
45837;DHT22;31548;51.420;-0.040;2023-03-14T01:22:11;10.50;99.90
45837;DHT22;31548;51.420;-0.040;2023-03-14T01:24:39;10.40;99.90
45837;DHT22;31548;51.420;-0.040;2023-03-14T01:27:06;10.10;99.90
45837;DHT22;31548;51.420;-0.040;2023-03-14T01:29:34;9.80;99.90
45837;DHT22;31548;51.420;-0.040;2023-03-14T01:32:01;9.60;99.90
45837;DHT22;31548;51.420;-0.040;2023-03-14T01:34:28;9.30;99.90
45837;DHT22;31548;51.420;-0.040;2023-03-14T01:36:55;9.10;99.90
45837;DHT22;31548;51.420;-0.040;2023-03-14T01:39:23;9.00;99.90
45837;DHT22;31548;51.420;-0.040;2023-03-14T01:41:50;8.80;99.90
45837;DHT22;31548;51.420;-0.040;2023-03-14T01:44:17;8.80;99.90
45837;DHT22;31548;51.420;-0.040;2023-03-14T01:46:45;8.80;99.90
45837;DHT22;31548;51.420;-0.040;2023-03-14T01:54:40;8.40;99.90
45837;DHT22;31548;51.420;-0.040;2023-03-14T01:57:28;8.30;99.90
45837;DHT22;31548;51.420;-0.040;2023-03-14T02:00:10;8.20;99.90
45837;DHT22;31548;51.420;-0.040;2023-03-14T02:02:47;8.20;99.90
45837;DHT22;31548;51.420;-0.040;2023-03-14T02:05:21;8.10;99.90
45837;DHT22;31548;51.420;-0.040;2023-03-14T02:07:59;8.10;99.90
45837;DHT22;31548;51.420;-0.040;2023-03-14T02:10:34;8.10;99.90
45837;DHT22;31548;51.420;-0.040;2023-03-14T02:13:04;8.00;99.90
45837;DHT22;31548;51.420;-0.040;2023-03-14T02:15:47;8.10;99.90
45837;DHT22;31548;51.420;-0.040;2023-03-14T02:18:33;8.10;99.90
45837;DHT22;31548;51.420;-0.040;2023-03-14T02:24:07;8.10;99.90
45837;DHT22;31548;51.420;-0.040;2023-03-14T02:27:14;8.10;99.90
45837;DHT22;31548;51.420;-0.040;2023-03-14T02:29:54;8.10;99.90
45837;DHT22;31548;51.420;-0.040;2023-03-14T02:32:24;8.10;99.90
45837;DHT22;31548;51.420;-0.040;2023-03-14T02:34:55;8.10;99.90
45837;DHT22;31548;51.420;-0.040;2023-03-14T02:37:41;8.10;99.90
45837;DHT22;31548;51.420;-0.040;2023-03-14T02:40:10;8.10;99.90
45837;DHT22;31548;51.420;-0.040;2023-03-14T02:42:39;8.10;99.90
45837;DHT22;31548;51.420;-0.040;2023-03-14T02:47:54;8.10;99.90
45837;DHT22;31548;51.420;-0.040;2023-03-14T02:50:26;8.00;99.90
45837;DHT22;31548;51.420;-0.040;2023-03-14T02:52:56;7.90;99.90
45837;DHT22;31548;51.420;-0.040;2023-03-14T02:55:24;7.80;99.90
45837;DHT22;31548;51.420;-0.040;2023-03-14T02:57:57;7.70;99.90
45837;DHT22;31548;51.420;-0.040;2023-03-14T03:00:24;7.60;99.90
45837;DHT22;31548;51.420;-0.040;2023-03-14T03:02:52;7.50;99.90
45837;DHT22;31548;51.420;-0.040;2023-03-14T03:05:19;7.40;99.90
45837;DHT22;31548;51.420;-0.040;2023-03-14T03:07:46;7.40;99.90
45837;DHT22;31548;51.420;-0.040;2023-03-14T03:10:14;7.30;99.90
45837;DHT22;31548;51.420;-0.040;2023-03-14T03:12:41;7.20;99.90
45837;DHT22;31548;51.420;-0.040;2023-03-14T03:15:10;7.20;99.90
45837;DHT22;31548;51.420;-0.040;2023-03-14T03:17:37;7.20;99.90
45837;DHT22;31548;51.420;-0.040;2023-03-14T03:20:06;7.10;99.90
45837;DHT22;31548;51.420;-0.040;2023-03-14T03:22:38;7.10;99.90
45837;DHT22;31548;51.420;-0.040;2023-03-14T03:25:07;7.00;99.90
45837;DHT22;31548;51.420;-0.040;2023-03-14T03:27:36;7.00;99.90
45837;DHT22;31548;51.420;-0.040;2023-03-14T03:30:05;7.00;99.90
45837;DHT22;31548;51.420;-0.040;2023-03-14T03:32:34;6.90;99.90
45837;DHT22;31548;51.420;-0.040;2023-03-14T03:35:04;6.90;99.90
45837;DHT22;31548;51.420;-0.040;2023-03-14T03:37:34;6.90;99.90
45837;DHT22;31548;51.420;-0.040;2023-03-14T03:40:05;6.90;99.90
45837;DHT22;31548;51.420;-0.040;2023-03-14T03:42:34;6.80;99.90
45837;DHT22;31548;51.420;-0.040;2023-03-14T03:45:03;6.80;99.90
45837;DHT22;31548;51.420;-0.040;2023-03-14T03:47:35;6.80;99.90
45837;DHT22;31548;51.420;-0.040;2023-03-14T03:50:03;6.70;99.90
45837;DHT22;31548;51.420;-0.040;2023-03-14T03:52:31;6.70;99.90
45837;DHT22;31548;51.420;-0.040;2023-03-14T03:54:58;6.70;99.90
45837;DHT22;31548;51.420;-0.040;2023-03-14T03:57:27;6.70;99.90
45837;DHT22;31548;51.420;-0.040;2023-03-14T03:59:56;6.70;99.90
45837;DHT22;31548;51.420;-0.040;2023-03-14T04:02:23;6.70;99.90
45837;DHT22;31548;51.420;-0.040;2023-03-14T04:04:51;6.70;99.90
45837;DHT22;31548;51.420;-0.040;2023-03-14T04:07:18;6.60;99.90
45837;DHT22;31548;51.420;-0.040;2023-03-14T04:09:46;6.60;99.90
45837;DHT22;31548;51.420;-0.040;2023-03-14T04:12:39;6.60;99.90
45837;DHT22;31548;51.420;-0.040;2023-03-14T04:15:11;6.60;99.90
45837;DHT22;31548;51.420;-0.040;2023-03-14T04:17:44;6.60;99.90
45837;DHT22;31548;51.420;-0.040;2023-03-14T04:20:13;6.50;99.90
45837;DHT22;31548;51.420;-0.040;2023-03-14T04:22:40;6.50;99.90
45837;DHT22;31548;51.420;-0.040;2023-03-14T04:25:10;6.40;99.90
45837;DHT22;31548;51.420;-0.040;2023-03-14T04:27:43;6.40;99.90
45837;DHT22;31548;51.420;-0.040;2023-03-14T04:30:18;6.40;99.90
45837;DHT22;31548;51.420;-0.040;2023-03-14T04:32:50;6.30;99.90
45837;DHT22;31548;51.420;-0.040;2023-03-14T04:35:19;6.30;99.90
45837;DHT22;31548;51.420;-0.040;2023-03-14T04:37:47;6.30;99.90
45837;DHT22;31548;51.420;-0.040;2023-03-14T04:40:17;6.30;99.90
45837;DHT22;31548;51.420;-0.040;2023-03-14T04:42:45;6.20;99.90
45837;DHT22;31548;51.420;-0.040;2023-03-14T04:45:13;6.20;99.90
45837;DHT22;31548;51.420;-0.040;2023-03-14T04:47:42;6.10;99.90
45837;DHT22;31548;51.420;-0.040;2023-03-14T04:50:13;6.10;99.90
45837;DHT22;31548;51.420;-0.040;2023-03-14T04:52:40;6.00;99.90
45837;DHT22;31548;51.420;-0.040;2023-03-14T04:55:08;6.00;99.90
45837;DHT22;31548;51.420;-0.040;2023-03-14T04:57:35;6.00;99.90
45837;DHT22;31548;51.420;-0.040;2023-03-14T05:00:04;6.00;99.90
45837;DHT22;31548;51.420;-0.040;2023-03-14T05:02:55;6.00;99.90
45837;DHT22;31548;51.420;-0.040;2023-03-14T05:05:51;5.90;99.90
45837;DHT22;31548;51.420;-0.040;2023-03-14T05:08:37;5.80;99.90
45837;DHT22;31548;51.420;-0.040;2023-03-14T05:11:26;5.90;99.90
45837;DHT22;31548;51.420;-0.040;2023-03-14T05:14:05;5.90;99.90
45837;DHT22;31548;51.420;-0.040;2023-03-14T05:16:51;5.90;99.90
45837;DHT22;31548;51.420;-0.040;2023-03-14T05:19:41;5.80;99.90
45837;DHT22;31548;51.420;-0.040;2023-03-14T05:22:11;5.80;99.90
45837;DHT22;31548;51.420;-0.040;2023-03-14T05:25:01;5.80;99.90
45837;DHT22;31548;51.420;-0.040;2023-03-14T05:27:55;5.80;99.90
45837;DHT22;31548;51.420;-0.040;2023-03-14T05:30:38;5.90;99.90
45837;DHT22;31548;51.420;-0.040;2023-03-14T05:33:40;5.80;99.90
45837;DHT22;31548;51.420;-0.040;2023-03-14T05:36:17;5.80;99.90
45837;DHT22;31548;51.420;-0.040;2023-03-14T05:38:56;5.80;99.90
45837;DHT22;31548;51.420;-0.040;2023-03-14T05:41:26;5.80;99.90
45837;DHT22;31548;51.420;-0.040;2023-03-14T05:44:15;5.80;99.90
45837;DHT22;31548;51.420;-0.040;2023-03-14T05:46:58;5.80;99.90
45837;DHT22;31548;51.420;-0.040;2023-03-14T05:49:28;5.80;99.90
45837;DHT22;31548;51.420;-0.040;2023-03-14T05:51:58;5.80;99.90
45837;DHT22;31548;51.420;-0.040;2023-03-14T05:54:44;5.90;99.90
45837;DHT22;31548;51.420;-0.040;2023-03-14T05:57:17;5.90;99.90
45837;DHT22;31548;51.420;-0.040;2023-03-14T06:00:12;5.90;99.90
45837;DHT22;31548;51.420;-0.040;2023-03-14T06:02:45;5.90;99.90
45837;DHT22;31548;51.420;-0.040;2023-03-14T06:05:21;5.80;99.90
45837;DHT22;31548;51.420;-0.040;2023-03-14T06:07:52;5.90;99.90
45837;DHT22;31548;51.420;-0.040;2023-03-14T06:10:20;5.90;99.90
45837;DHT22;31548;51.420;-0.040;2023-03-14T06:12:48;5.90;99.90
45837;DHT22;31548;51.420;-0.040;2023-03-14T06:15:15;5.90;99.90
45837;DHT22;31548;51.420;-0.040;2023-03-14T06:17:45;6.00;99.90
45837;DHT22;31548;51.420;-0.040;2023-03-14T06:20:13;6.00;99.90
45837;DHT22;31548;51.420;-0.040;2023-03-14T06:22:41;5.90;99.90
45837;DHT22;31548;51.420;-0.040;2023-03-14T06:25:11;5.90;99.90
45837;DHT22;31548;51.420;-0.040;2023-03-14T06:27:39;6.00;99.90
45837;DHT22;31548;51.420;-0.040;2023-03-14T06:30:07;6.00;99.90
45837;DHT22;31548;51.420;-0.040;2023-03-14T06:32:35;6.00;99.90
45837;DHT22;31548;51.420;-0.040;2023-03-14T06:35:07;6.00;99.90
45837;DHT22;31548;51.420;-0.040;2023-03-14T06:37:39;6.00;99.90
45837;DHT22;31548;51.420;-0.040;2023-03-14T06:40:08;6.00;99.90
45837;DHT22;31548;51.420;-0.040;2023-03-14T06:42:49;6.00;99.90
45837;DHT22;31548;51.420;-0.040;2023-03-14T06:45:18;6.10;99.90
45837;DHT22;31548;51.420;-0.040;2023-03-14T06:47:46;6.10;99.90
45837;DHT22;31548;51.420;-0.040;2023-03-14T06:50:15;6.10;99.90
45837;DHT22;31548;51.420;-0.040;2023-03-14T06:52:47;6.10;99.90
45837;DHT22;31548;51.420;-0.040;2023-03-14T06:55:20;6.10;99.90
45837;DHT22;31548;51.420;-0.040;2023-03-14T06:57:49;6.10;99.90
45837;DHT22;31548;51.420;-0.040;2023-03-14T07:00:17;6.10;99.90
45837;DHT22;31548;51.420;-0.040;2023-03-14T07:02:44;6.10;99.90
45837;DHT22;31548;51.420;-0.040;2023-03-14T07:05:27;6.10;99.90
45837;DHT22;31548;51.420;-0.040;2023-03-14T07:07:54;6.10;99.90
45837;DHT22;31548;51.420;-0.040;2023-03-14T07:10:22;6.10;99.90
45837;DHT22;31548;51.420;-0.040;2023-03-14T07:12:50;6.10;99.90
45837;DHT22;31548;51.420;-0.040;2023-03-14T07:15:22;6.10;99.90
45837;DHT22;31548;51.420;-0.040;2023-03-14T07:17:55;6.20;99.90
45837;DHT22;31548;51.420;-0.040;2023-03-14T07:20:33;6.20;99.90
45837;DHT22;31548;51.420;-0.040;2023-03-14T07:23:02;6.20;99.90
45837;DHT22;31548;51.420;-0.040;2023-03-14T07:25:45;6.20;99.90
45837;DHT22;31548;51.420;-0.040;2023-03-14T07:28:13;6.20;99.90
45837;DHT22;31548;51.420;-0.040;2023-03-14T07:30:43;6.20;99.90
45837;DHT22;31548;51.420;-0.040;2023-03-14T07:33:18;6.10;99.90
45837;DHT22;31548;51.420;-0.040;2023-03-14T07:35:49;6.20;99.90
45837;DHT22;31548;51.420;-0.040;2023-03-14T07:38:17;6.20;99.90
45837;DHT22;31548;51.420;-0.040;2023-03-14T07:41:24;6.10;99.90
45837;DHT22;31548;51.420;-0.040;2023-03-14T07:44:17;6.10;99.90
45837;DHT22;31548;51.420;-0.040;2023-03-14T07:46:44;6.00;99.90
45837;DHT22;31548;51.420;-0.040;2023-03-14T07:49:11;6.10;99.90
45837;DHT22;31548;51.420;-0.040;2023-03-14T07:51:39;6.00;99.90
45837;DHT22;31548;51.420;-0.040;2023-03-14T07:54:06;5.90;99.90
45837;DHT22;31548;51.420;-0.040;2023-03-14T07:56:33;5.90;99.90
45837;DHT22;31548;51.420;-0.040;2023-03-14T07:59:00;5.80;99.90
45837;DHT22;31548;51.420;-0.040;2023-03-14T08:01:28;5.80;99.90
45837;DHT22;31548;51.420;-0.040;2023-03-14T08:03:55;5.80;99.90
45837;DHT22;31548;51.420;-0.040;2023-03-14T08:06:26;5.70;99.90
45837;DHT22;31548;51.420;-0.040;2023-03-14T08:08:53;5.50;99.90
45837;DHT22;31548;51.420;-0.040;2023-03-14T08:11:24;5.50;99.90
45837;DHT22;31548;51.420;-0.040;2023-03-14T08:13:52;5.50;99.90
45837;DHT22;31548;51.420;-0.040;2023-03-14T08:16:20;5.50;99.90
45837;DHT22;31548;51.420;-0.040;2023-03-14T08:18:47;5.50;99.90
45837;DHT22;31548;51.420;-0.040;2023-03-14T08:21:14;5.50;99.90
45837;DHT22;31548;51.420;-0.040;2023-03-14T08:23:41;5.60;99.90
45837;DHT22;31548;51.420;-0.040;2023-03-14T08:26:09;5.50;99.90
45837;DHT22;31548;51.420;-0.040;2023-03-14T08:28:36;5.50;99.90
45837;DHT22;31548;51.420;-0.040;2023-03-14T08:31:04;5.50;99.90
45837;DHT22;31548;51.420;-0.040;2023-03-14T08:33:32;5.40;99.90
45837;DHT22;31548;51.420;-0.040;2023-03-14T08:36:00;5.50;99.90
45837;DHT22;31548;51.420;-0.040;2023-03-14T08:38:28;5.50;99.90
45837;DHT22;31548;51.420;-0.040;2023-03-14T08:40:57;5.40;99.90
45837;DHT22;31548;51.420;-0.040;2023-03-14T08:43:28;5.40;99.90
45837;DHT22;31548;51.420;-0.040;2023-03-14T08:46:00;5.50;99.90
45837;DHT22;31548;51.420;-0.040;2023-03-14T08:48:28;5.40;99.90
45837;DHT22;31548;51.420;-0.040;2023-03-14T08:51:03;5.40;99.90
45837;DHT22;31548;51.420;-0.040;2023-03-14T08:53:31;5.50;99.90
45837;DHT22;31548;51.420;-0.040;2023-03-14T08:55:58;5.40;99.90
45837;DHT22;31548;51.420;-0.040;2023-03-14T08:58:25;5.40;99.90
45837;DHT22;31548;51.420;-0.040;2023-03-14T09:00:53;5.30;99.90
45837;DHT22;31548;51.420;-0.040;2023-03-14T09:03:20;5.40;99.90
45837;DHT22;31548;51.420;-0.040;2023-03-14T09:05:50;5.30;99.90
45837;DHT22;31548;51.420;-0.040;2023-03-14T09:08:18;5.40;99.90
45837;DHT22;31548;51.420;-0.040;2023-03-14T09:10:45;5.40;99.90
45837;DHT22;31548;51.420;-0.040;2023-03-14T09:13:15;5.30;99.90
45837;DHT22;31548;51.420;-0.040;2023-03-14T09:15:42;5.40;99.90
45837;DHT22;31548;51.420;-0.040;2023-03-14T09:18:10;5.30;99.90
45837;DHT22;31548;51.420;-0.040;2023-03-14T09:20:37;5.40;99.90
45837;DHT22;31548;51.420;-0.040;2023-03-14T09:23:04;5.40;99.90
45837;DHT22;31548;51.420;-0.040;2023-03-14T09:25:31;5.40;99.90
45837;DHT22;31548;51.420;-0.040;2023-03-14T09:27:58;5.40;99.90
45837;DHT22;31548;51.420;-0.040;2023-03-14T09:30:26;5.50;99.90
45837;DHT22;31548;51.420;-0.040;2023-03-14T09:32:53;5.40;99.90
45837;DHT22;31548;51.420;-0.040;2023-03-14T09:35:20;5.40;99.90
45837;DHT22;31548;51.420;-0.040;2023-03-14T09:37:48;5.50;99.90
45837;DHT22;31548;51.420;-0.040;2023-03-14T09:40:16;5.40;99.90
45837;DHT22;31548;51.420;-0.040;2023-03-14T09:42:45;5.30;99.90
45837;DHT22;31548;51.420;-0.040;2023-03-14T09:45:35;5.20;99.90
45837;DHT22;31548;51.420;-0.040;2023-03-14T09:48:04;5.10;99.90
45837;DHT22;31548;51.420;-0.040;2023-03-14T09:50:39;5.20;99.90
45837;DHT22;31548;51.420;-0.040;2023-03-14T09:53:14;5.00;99.90
45837;DHT22;31548;51.420;-0.040;2023-03-14T09:55:45;4.90;99.90
45837;DHT22;31548;51.420;-0.040;2023-03-14T09:58:16;4.90;99.90
45837;DHT22;31548;51.420;-0.040;2023-03-14T10:00:45;4.90;99.90
45837;DHT22;31548;51.420;-0.040;2023-03-14T10:05:41;5.00;99.90
45837;DHT22;31548;51.420;-0.040;2023-03-14T10:08:12;5.00;99.90
45837;DHT22;31548;51.420;-0.040;2023-03-14T10:10:40;5.20;99.90
45837;DHT22;31548;51.420;-0.040;2023-03-14T10:13:19;5.20;99.90
45837;DHT22;31548;51.420;-0.040;2023-03-14T10:15:52;5.20;99.90
45837;DHT22;31548;51.420;-0.040;2023-03-14T10:18:21;5.30;99.90
45837;DHT22;31548;51.420;-0.040;2023-03-14T10:21:01;5.30;99.90
45837;DHT22;31548;51.420;-0.040;2023-03-14T10:23:32;5.40;99.90
45837;DHT22;31548;51.420;-0.040;2023-03-14T10:26:13;5.40;99.90
45837;DHT22;31548;51.420;-0.040;2023-03-14T10:28:46;5.50;99.90
45837;DHT22;31548;51.420;-0.040;2023-03-14T10:31:15;5.60;99.90
45837;DHT22;31548;51.420;-0.040;2023-03-14T10:34:03;5.80;99.90
45837;DHT22;31548;51.420;-0.040;2023-03-14T10:36:33;5.90;99.90
45837;DHT22;31548;51.420;-0.040;2023-03-14T10:39:24;6.10;99.90
45837;DHT22;31548;51.420;-0.040;2023-03-14T10:41:54;6.30;99.90
45837;DHT22;31548;51.420;-0.040;2023-03-14T10:44:26;6.40;99.90
45837;DHT22;31548;51.420;-0.040;2023-03-14T10:46:57;6.50;99.90
45837;DHT22;31548;51.420;-0.040;2023-03-14T10:52:13;6.80;99.90
45837;DHT22;31548;51.420;-0.040;2023-03-14T10:54:40;6.90;99.90
45837;DHT22;31548;51.420;-0.040;2023-03-14T10:57:10;6.80;99.90
45837;DHT22;31548;51.420;-0.040;2023-03-14T10:59:40;6.80;99.90
45837;DHT22;31548;51.420;-0.040;2023-03-14T11:05:20;7.10;99.90
45837;DHT22;31548;51.420;-0.040;2023-03-14T11:07:49;7.20;99.90
45837;DHT22;31548;51.420;-0.040;2023-03-14T11:10:34;7.30;99.90
45837;DHT22;31548;51.420;-0.040;2023-03-14T11:15:58;7.20;99.90
45837;DHT22;31548;51.420;-0.040;2023-03-14T11:21:22;7.30;99.90
45837;DHT22;31548;51.420;-0.040;2023-03-14T11:29:29;7.20;99.90
45837;DHT22;31548;51.420;-0.040;2023-03-14T11:32:02;7.20;99.90
45837;DHT22;31548;51.420;-0.040;2023-03-14T11:34:50;7.20;99.90
45837;DHT22;31548;51.420;-0.040;2023-03-14T11:37:40;7.20;99.90
45837;DHT22;31548;51.420;-0.040;2023-03-14T11:40:14;7.20;99.90
45837;DHT22;31548;51.420;-0.040;2023-03-14T11:42:46;7.10;99.90
45837;DHT22;31548;51.420;-0.040;2023-03-14T11:45:27;7.10;99.90
45837;DHT22;31548;51.420;-0.040;2023-03-14T11:50:35;7.40;99.90
45837;DHT22;31548;51.420;-0.040;2023-03-14T11:53:15;7.40;99.90
45837;DHT22;31548;51.420;-0.040;2023-03-14T11:55:45;7.30;99.90
45837;DHT22;31548;51.420;-0.040;2023-03-14T12:00:51;7.40;99.90
45837;DHT22;31548;51.420;-0.040;2023-03-14T12:03:38;7.40;99.90
45837;DHT22;31548;51.420;-0.040;2023-03-14T12:06:17;7.50;99.90
45837;DHT22;31548;51.420;-0.040;2023-03-14T12:08:52;7.50;99.90
45837;DHT22;31548;51.420;-0.040;2023-03-14T12:16:48;7.60;99.90
45837;DHT22;31548;51.420;-0.040;2023-03-14T12:19:27;7.80;99.90
45837;DHT22;31548;51.420;-0.040;2023-03-14T12:21:59;8.00;99.90
45837;DHT22;31548;51.420;-0.040;2023-03-14T12:24:30;8.10;99.90
45837;DHT22;31548;51.420;-0.040;2023-03-14T12:27:01;8.20;99.90
45837;DHT22;31548;51.420;-0.040;2023-03-14T12:29:29;8.20;99.90
45837;DHT22;31548;51.420;-0.040;2023-03-14T12:34:43;8.00;99.90
45837;DHT22;31548;51.420;-0.040;2023-03-14T12:37:19;8.00;99.90
45837;DHT22;31548;51.420;-0.040;2023-03-14T12:45:30;8.00;99.90
45837;DHT22;31548;51.420;-0.040;2023-03-14T12:48:23;8.00;99.90
45837;DHT22;31548;51.420;-0.040;2023-03-14T12:51:04;8.00;99.90
45837;DHT22;31548;51.420;-0.040;2023-03-14T12:56:42;8.10;99.90
45837;DHT22;31548;51.420;-0.040;2023-03-14T12:59:34;8.00;99.90
45837;DHT22;31548;51.420;-0.040;2023-03-14T13:04:37;8.20;99.90
45837;DHT22;31548;51.420;-0.040;2023-03-14T13:07:33;8.40;99.90
45837;DHT22;31548;51.420;-0.040;2023-03-14T13:12:32;8.30;99.90
45837;DHT22;31548;51.420;-0.040;2023-03-14T13:15:11;8.30;99.90
45837;DHT22;31548;51.420;-0.040;2023-03-14T13:17:40;8.30;99.90
45837;DHT22;31548;51.420;-0.040;2023-03-14T13:20:36;8.40;99.90
45837;DHT22;31548;51.420;-0.040;2023-03-14T13:23:02;8.40;99.90
45837;DHT22;31548;51.420;-0.040;2023-03-14T13:25:32;8.40;99.90
45837;DHT22;31548;51.420;-0.040;2023-03-14T13:28:01;8.70;99.90
45837;DHT22;31548;51.420;-0.040;2023-03-14T13:30:40;9.00;99.90
45837;DHT22;31548;51.420;-0.040;2023-03-14T13:33:17;9.40;99.90
45837;DHT22;31548;51.420;-0.040;2023-03-14T13:36:05;9.60;99.90
45837;DHT22;31548;51.420;-0.040;2023-03-14T13:38:35;9.40;99.90
45837;DHT22;31548;51.420;-0.040;2023-03-14T13:41:07;9.50;99.90
45837;DHT22;31548;51.420;-0.040;2023-03-14T13:43:43;9.40;99.90
45837;DHT22;31548;51.420;-0.040;2023-03-14T13:46:23;9.30;99.90
45837;DHT22;31548;51.420;-0.040;2023-03-14T13:49:01;9.10;99.90
45837;DHT22;31548;51.420;-0.040;2023-03-14T13:51:31;9.10;99.90
45837;DHT22;31548;51.420;-0.040;2023-03-14T13:54:01;9.10;99.90
45837;DHT22;31548;51.420;-0.040;2023-03-14T13:56:33;9.50;99.90
45837;DHT22;31548;51.420;-0.040;2023-03-14T13:59:00;9.30;99.90
45837;DHT22;31548;51.420;-0.040;2023-03-14T14:01:35;9.30;99.90
45837;DHT22;31548;51.420;-0.040;2023-03-14T14:04:14;9.70;99.90
45837;DHT22;31548;51.420;-0.040;2023-03-14T14:09:27;9.50;99.90
45837;DHT22;31548;51.420;-0.040;2023-03-14T14:12:12;9.40;99.90
45837;DHT22;31548;51.420;-0.040;2023-03-14T14:14:53;9.30;99.90
45837;DHT22;31548;51.420;-0.040;2023-03-14T14:17:32;9.20;99.90
45837;DHT22;31548;51.420;-0.040;2023-03-14T14:20:03;9.20;99.90
45837;DHT22;31548;51.420;-0.040;2023-03-14T14:22:33;9.00;99.90
45837;DHT22;31548;51.420;-0.040;2023-03-14T14:25:01;8.80;99.90
45837;DHT22;31548;51.420;-0.040;2023-03-14T14:30:01;8.80;99.90
45837;DHT22;31548;51.420;-0.040;2023-03-14T14:32:38;8.80;99.90
45837;DHT22;31548;51.420;-0.040;2023-03-14T14:35:07;8.70;99.90
45837;DHT22;31548;51.420;-0.040;2023-03-14T14:37:42;8.70;99.90
45837;DHT22;31548;51.420;-0.040;2023-03-14T14:40:17;8.70;99.90
45837;DHT22;31548;51.420;-0.040;2023-03-14T14:42:46;8.60;99.90
45837;DHT22;31548;51.420;-0.040;2023-03-14T14:45:17;8.50;99.90
45837;DHT22;31548;51.420;-0.040;2023-03-14T14:48:15;8.50;99.90
45837;DHT22;31548;51.420;-0.040;2023-03-14T14:51:03;8.40;99.90
45837;DHT22;31548;51.420;-0.040;2023-03-14T14:53:42;8.40;99.90
45837;DHT22;31548;51.420;-0.040;2023-03-14T14:56:27;8.80;99.90
45837;DHT22;31548;51.420;-0.040;2023-03-14T14:59:01;9.30;99.90
45837;DHT22;31548;51.420;-0.040;2023-03-14T15:01:38;9.70;99.90
45837;DHT22;31548;51.420;-0.040;2023-03-14T15:04:11;10.00;98.50
45837;DHT22;31548;51.420;-0.040;2023-03-14T15:06:46;10.00;98.80
45837;DHT22;31548;51.420;-0.040;2023-03-14T15:09:15;10.20;99.90
45837;DHT22;31548;51.420;-0.040;2023-03-14T15:11:44;10.70;98.90
45837;DHT22;31548;51.420;-0.040;2023-03-14T15:14:11;11.00;98.00
45837;DHT22;31548;51.420;-0.040;2023-03-14T15:16:40;11.30;96.30
45837;DHT22;31548;51.420;-0.040;2023-03-14T15:19:19;11.50;99.90
45837;DHT22;31548;51.420;-0.040;2023-03-14T15:21:52;11.90;93.80
45837;DHT22;31548;51.420;-0.040;2023-03-14T15:24:20;11.80;95.50
45837;DHT22;31548;51.420;-0.040;2023-03-14T15:26:48;12.00;95.60
45837;DHT22;31548;51.420;-0.040;2023-03-14T15:29:15;12.40;93.30
45837;DHT22;31548;51.420;-0.040;2023-03-14T15:31:43;12.20;92.80
45837;DHT22;31548;51.420;-0.040;2023-03-14T15:34:11;12.60;95.20
45837;DHT22;31548;51.420;-0.040;2023-03-14T15:36:38;13.00;93.50
45837;DHT22;31548;51.420;-0.040;2023-03-14T15:39:09;13.30;91.90
45837;DHT22;31548;51.420;-0.040;2023-03-14T15:41:37;13.30;91.00
45837;DHT22;31548;51.420;-0.040;2023-03-14T15:44:04;13.50;90.30
45837;DHT22;31548;51.420;-0.040;2023-03-14T15:46:31;12.90;94.10
45837;DHT22;31548;51.420;-0.040;2023-03-14T15:48:58;12.80;92.90
45837;DHT22;31548;51.420;-0.040;2023-03-14T15:51:26;13.10;92.70
45837;DHT22;31548;51.420;-0.040;2023-03-14T15:53:53;13.30;90.70
45837;DHT22;31548;51.420;-0.040;2023-03-14T15:56:20;13.40;92.60
45837;DHT22;31548;51.420;-0.040;2023-03-14T15:58:51;13.20;90.00
45837;DHT22;31548;51.420;-0.040;2023-03-14T16:01:18;13.50;92.20
45837;DHT22;31548;51.420;-0.040;2023-03-14T16:03:45;13.70;90.90
45837;DHT22;31548;51.420;-0.040;2023-03-14T16:06:13;13.70;90.10
45837;DHT22;31548;51.420;-0.040;2023-03-14T16:08:41;13.60;91.00
45837;DHT22;31548;51.420;-0.040;2023-03-14T16:11:13;13.20;91.40
45837;DHT22;31548;51.420;-0.040;2023-03-14T16:13:41;13.20;88.20
45837;DHT22;31548;51.420;-0.040;2023-03-14T16:16:09;13.00;91.60
45837;DHT22;31548;51.420;-0.040;2023-03-14T16:18:39;12.90;92.90
45837;DHT22;31548;51.420;-0.040;2023-03-14T16:21:12;13.00;88.80
45837;DHT22;31548;51.420;-0.040;2023-03-14T16:23:40;13.00;88.80
45837;DHT22;31548;51.420;-0.040;2023-03-14T16:26:09;13.20;90.40
45837;DHT22;31548;51.420;-0.040;2023-03-14T16:28:37;13.60;92.00
45837;DHT22;31548;51.420;-0.040;2023-03-14T16:31:10;13.30;89.40
45837;DHT22;31548;51.420;-0.040;2023-03-14T16:33:38;13.20;90.90
45837;DHT22;31548;51.420;-0.040;2023-03-14T16:36:07;12.90;89.20
45837;DHT22;31548;51.420;-0.040;2023-03-14T16:38:36;13.20;88.90
45837;DHT22;31548;51.420;-0.040;2023-03-14T16:43:37;13.10;88.50
45837;DHT22;31548;51.420;-0.040;2023-03-14T16:46:06;13.10;90.50
45837;DHT22;31548;51.420;-0.040;2023-03-14T16:48:35;12.80;91.60
45837;DHT22;31548;51.420;-0.040;2023-03-14T16:51:02;12.30;89.70
45837;DHT22;31548;51.420;-0.040;2023-03-14T16:53:29;12.10;93.00
45837;DHT22;31548;51.420;-0.040;2023-03-14T16:55:58;11.90;90.70
45837;DHT22;31548;51.420;-0.040;2023-03-14T16:58:26;11.60;91.70
45837;DHT22;31548;51.420;-0.040;2023-03-14T17:00:54;11.20;91.20
45837;DHT22;31548;51.420;-0.040;2023-03-14T17:03:24;11.00;92.30